Saffell, AR (72572)

9:52 PM CST on November 28, 2014 (GMT -0600)
Newark Wolverton Way | Change Station
CLOSE
Current Station
Personal Weather Station
Location: Newark, AR
Elevation: 328 ft
Nearby Weather Stations

Elev 328 ft 35.71 °N, 91.44 °W | Updated 12 minutes ago

Clear
Clear
46.2 °F
Feels Like 44 °F
N
5.3
Wind Variable Wind from SW

Today
High -- | Low -- °F
--% Chance of Precip.
Yesterday
High -- | Low -- °F
Precip. -- in
6:54 AM 4:51 PM
Waxing Crescent, 47% visible
Pressure 30.07 in
Visibility 10.0 miles
Clouds Clear
Windchill 44 °F
Dew Point 37 °F
Humidity 70%
Rainfall 0.00 in
Snow Depth Not available.
UV 0 out of 12
Pollen 3.60 out of 12
Air Quality Not available.
Flu Activity Not available.
METAR KM19 290256Z AUTO 19011KT 10SM CLR 07/03 A3006 RMK AO2 56011 T00660027 SLP182

More Conditions Fewer Conditions

Pressure 30.07 in
Visibility 10.0 miles
Clouds Clear
Windchill 44 °F
Dew Point 37 °F
Humidity 70%
Rainfall 0.00 in
Snow Depth Not available.
UV 0 out of 12
Pollen 3.60 out of 12
Air Quality Not available.
Flu Activity Not available.
METAR KM19 290256Z AUTO 19011KT 10SM CLR 07/03 A3006 RMK AO2 56011 T00660027 SLP182

More Conditions Fewer Conditions

10-Day Weather Forecast

Almanac

Astronomy

Nov. 28, 2014 Rise Set
Actual Time
Civil Twilight
Nautical Twilight
Astronomical Twilight
Moon
Length of Visible Light
Length of Day
Tomorrow will be .
, % of the Moon is Illuminated

Today's Extremes

State Highs State Lows

Community

WunderPhotos

Upload Photos

1,774,389 photos uploaded!

WunderBlogs® & News

Nearby

Air Quality

  Air Quality AQ Index Pollutant
Not available.

Snow Depth

Station Depth Elevation

Earthquake Activity

City Distance Mag. Time & Date
Minimum magnitude displayed is 2.5.

Coastal Water Temperatures

Place Temperature

Nearby Weather Stations